sensor_id;sensor_type;location;lat;lon;timestamp;temperature;humidity
8988;DHT22;4529;51.360;12.474;2022-12-07T00:03:48;4.40;99.90
8988;DHT22;4529;51.360;12.474;2022-12-07T00:08:50;4.50;99.90
8988;DHT22;4529;51.360;12.474;2022-12-07T00:13:56;4.50;99.90
8988;DHT22;4529;51.360;12.474;2022-12-07T00:18:58;4.40;99.90
8988;DHT22;4529;51.360;12.474;2022-12-07T00:24:03;4.40;99.90
8988;DHT22;4529;51.360;12.474;2022-12-07T00:29:08;4.40;99.90
8988;DHT22;4529;51.360;12.474;2022-12-07T00:34:14;4.30;99.90
8988;DHT22;4529;51.360;12.474;2022-12-07T00:39:17;4.30;99.90
8988;DHT22;4529;51.360;12.474;2022-12-07T00:44:20;4.30;99.90
8988;DHT22;4529;51.360;12.474;2022-12-07T00:49:24;4.30;99.90
8988;DHT22;4529;51.360;12.474;2022-12-07T00:54:27;4.30;99.90
8988;DHT22;4529;51.360;12.474;2022-12-07T00:59:31;4.30;99.90
8988;DHT22;4529;51.360;12.474;2022-12-07T01:04:35;4.20;99.90
8988;DHT22;4529;51.360;12.474;2022-12-07T01:09:39;4.10;99.90
8988;DHT22;4529;51.360;12.474;2022-12-07T01:14:43;4.10;99.90
8988;DHT22;4529;51.360;12.474;2022-12-07T01:19:46;4.00;99.90
8988;DHT22;4529;51.360;12.474;2022-12-07T01:24:50;4.00;99.90
8988;DHT22;4529;51.360;12.474;2022-12-07T01:29:54;3.80;99.90
8988;DHT22;4529;51.360;12.474;2022-12-07T01:34:58;3.80;99.90
8988;DHT22;4529;51.360;12.474;2022-12-07T01:40:03;3.70;99.90
8988;DHT22;4529;51.360;12.474;2022-12-07T01:45:41;3.70;99.90
8988;DHT22;4529;51.360;12.474;2022-12-07T01:50:45;3.60;99.90
8988;DHT22;4529;51.360;12.474;2022-12-07T01:55:49;3.60;99.90
8988;DHT22;4529;51.360;12.474;2022-12-07T02:00:53;3.50;99.90
8988;DHT22;4529;51.360;12.474;2022-12-07T02:05:56;3.50;99.90
8988;DHT22;4529;51.360;12.474;2022-12-07T02:11:03;3.40;99.90
8988;DHT22;4529;51.360;12.474;2022-12-07T02:21:45;3.30;99.90
8988;DHT22;4529;51.360;12.474;2022-12-07T02:32:18;3.30;99.90
8988;DHT22;4529;51.360;12.474;2022-12-07T02:37:36;3.20;99.90
8988;DHT22;4529;51.360;12.474;2022-12-07T02:42:40;3.20;99.90
8988;DHT22;4529;51.360;12.474;2022-12-07T02:47:41;3.20;99.90
8988;DHT22;4529;51.360;12.474;2022-12-07T02:52:45;3.20;99.90
8988;DHT22;4529;51.360;12.474;2022-12-07T03:03:05;3.10;99.90
8988;DHT22;4529;51.360;12.474;2022-12-07T03:13:55;3.10;99.90
8988;DHT22;4529;51.360;12.474;2022-12-07T03:19:07;3.10;99.90
8988;DHT22;4529;51.360;12.474;2022-12-07T03:24:13;3.10;99.90
8988;DHT22;4529;51.360;12.474;2022-12-07T03:29:19;3.10;99.90
8988;DHT22;4529;51.360;12.474;2022-12-07T03:34:29;3.10;99.90
8988;DHT22;4529;51.360;12.474;2022-12-07T03:39:38;3.10;99.90
8988;DHT22;4529;51.360;12.474;2022-12-07T03:44:41;3.20;99.90
8988;DHT22;4529;51.360;12.474;2022-12-07T03:55:20;3.20;99.90
8988;DHT22;4529;51.360;12.474;2022-12-07T04:00:23;3.30;99.90
8988;DHT22;4529;51.360;12.474;2022-12-07T04:05:27;3.40;99.90
8988;DHT22;4529;51.360;12.474;2022-12-07T04:10:30;3.40;99.90
8988;DHT22;4529;51.360;12.474;2022-12-07T04:15:34;3.50;99.90
8988;DHT22;4529;51.360;12.474;2022-12-07T04:20:38;3.50;99.90
8988;DHT22;4529;51.360;12.474;2022-12-07T04:25:42;3.60;99.90
8988;DHT22;4529;51.360;12.474;2022-12-07T04:30:46;3.50;99.90
8988;DHT22;4529;51.360;12.474;2022-12-07T04:35:49;3.60;99.90
8988;DHT22;4529;51.360;12.474;2022-12-07T04:40:53;3.60;99.90
8988;DHT22;4529;51.360;12.474;2022-12-07T04:45:57;3.70;99.90
8988;DHT22;4529;51.360;12.474;2022-12-07T04:51:02;3.70;99.90
8988;DHT22;4529;51.360;12.474;2022-12-07T04:56:05;3.70;99.90
8988;DHT22;4529;51.360;12.474;2022-12-07T05:01:09;3.70;99.90
8988;DHT22;4529;51.360;12.474;2022-12-07T05:06:12;3.60;99.90
8988;DHT22;4529;51.360;12.474;2022-12-07T05:11:16;3.70;99.90
8988;DHT22;4529;51.360;12.474;2022-12-07T05:16:19;3.70;99.90
8988;DHT22;4529;51.360;12.474;2022-12-07T05:21:22;3.70;99.90
8988;DHT22;4529;51.360;12.474;2022-12-07T05:26:27;3.70;99.90
8988;DHT22;4529;51.360;12.474;2022-12-07T05:31:31;3.80;99.90
8988;DHT22;4529;51.360;12.474;2022-12-07T05:36:34;3.80;99.90
8988;DHT22;4529;51.360;12.474;2022-12-07T05:41:38;3.90;99.90
8988;DHT22;4529;51.360;12.474;2022-12-07T05:46:41;3.90;99.90
8988;DHT22;4529;51.360;12.474;2022-12-07T05:51:45;4.00;99.90
8988;DHT22;4529;51.360;12.474;2022-12-07T05:56:49;4.00;99.90
8988;DHT22;4529;51.360;12.474;2022-12-07T06:01:57;4.00;99.90
8988;DHT22;4529;51.360;12.474;2022-12-07T06:07:00;4.00;99.90
8988;DHT22;4529;51.360;12.474;2022-12-07T06:12:05;4.00;99.90
8988;DHT22;4529;51.360;12.474;2022-12-07T06:17:08;4.00;99.90
8988;DHT22;4529;51.360;12.474;2022-12-07T06:22:11;4.10;99.90
8988;DHT22;4529;51.360;12.474;2022-12-07T06:27:15;4.10;99.90
8988;DHT22;4529;51.360;12.474;2022-12-07T06:32:18;4.10;99.90
8988;DHT22;4529;51.360;12.474;2022-12-07T06:37:22;4.20;99.90
8988;DHT22;4529;51.360;12.474;2022-12-07T06:42:25;4.20;99.90
8988;DHT22;4529;51.360;12.474;2022-12-07T06:47:29;4.20;99.90
8988;DHT22;4529;51.360;12.474;2022-12-07T06:52:32;4.20;99.90
8988;DHT22;4529;51.360;12.474;2022-12-07T06:57:36;4.20;99.90
8988;DHT22;4529;51.360;12.474;2022-12-07T07:02:40;4.20;99.90
8988;DHT22;4529;51.360;12.474;2022-12-07T07:07:44;4.30;99.90
8988;DHT22;4529;51.360;12.474;2022-12-07T07:12:48;4.30;99.90
8988;DHT22;4529;51.360;12.474;2022-12-07T07:17:52;4.40;99.90
8988;DHT22;4529;51.360;12.474;2022-12-07T07:22:56;4.30;99.90
8988;DHT22;4529;51.360;12.474;2022-12-07T07:27:59;4.40;99.90
8988;DHT22;4529;51.360;12.474;2022-12-07T07:33:03;4.40;99.90
8988;DHT22;4529;51.360;12.474;2022-12-07T07:38:06;4.40;99.90
8988;DHT22;4529;51.360;12.474;2022-12-07T07:43:09;4.50;99.90
8988;DHT22;4529;51.360;12.474;2022-12-07T07:48:13;4.40;99.90
8988;DHT22;4529;51.360;12.474;2022-12-07T07:53:18;4.30;99.90
8988;DHT22;4529;51.360;12.474;2022-12-07T07:58:21;4.30;99.90
8988;DHT22;4529;51.360;12.474;2022-12-07T08:03:24;4.40;99.90
8988;DHT22;4529;51.360;12.474;2022-12-07T08:08:28;4.50;99.90
8988;DHT22;4529;51.360;12.474;2022-12-07T08:13:33;4.30;99.90
8988;DHT22;4529;51.360;12.474;2022-12-07T08:18:37;4.40;99.90
8988;DHT22;4529;51.360;12.474;2022-12-07T08:23:40;4.70;99.90
8988;DHT22;4529;51.360;12.474;2022-12-07T08:28:43;4.80;99.90
8988;DHT22;4529;51.360;12.474;2022-12-07T08:33:47;5.00;99.90
8988;DHT22;4529;51.360;12.474;2022-12-07T08:38:51;4.60;99.90
8988;DHT22;4529;51.360;12.474;2022-12-07T08:43:55;4.80;99.90
8988;DHT22;4529;51.360;12.474;2022-12-07T08:49:21;5.10;99.90
8988;DHT22;4529;51.360;12.474;2022-12-07T08:54:24;5.30;99.90
8988;DHT22;4529;51.360;12.474;2022-12-07T08:59:28;5.40;99.90
8988;DHT22;4529;51.360;12.474;2022-12-07T09:04:31;5.40;99.90
8988;DHT22;4529;51.360;12.474;2022-12-07T09:09:35;5.50;99.90
8988;DHT22;4529;51.360;12.474;2022-12-07T09:14:38;5.60;99.90
8988;DHT22;4529;51.360;12.474;2022-12-07T09:19:42;5.70;99.90
8988;DHT22;4529;51.360;12.474;2022-12-07T09:24:46;5.80;99.90
8988;DHT22;4529;51.360;12.474;2022-12-07T09:29:51;5.80;99.90
8988;DHT22;4529;51.360;12.474;2022-12-07T09:34:54;5.80;99.90
8988;DHT22;4529;51.360;12.474;2022-12-07T09:39:57;5.90;99.90
8988;DHT22;4529;51.360;12.474;2022-12-07T09:45:01;6.00;99.90
8988;DHT22;4529;51.360;12.474;2022-12-07T09:50:11;6.00;99.90
8988;DHT22;4529;51.360;12.474;2022-12-07T09:55:13;6.00;99.90
8988;DHT22;4529;51.360;12.474;2022-12-07T10:00:16;6.00;99.90
8988;DHT22;4529;51.360;12.474;2022-12-07T10:05:24;6.00;99.90
8988;DHT22;4529;51.360;12.474;2022-12-07T10:10:29;6.00;99.90
8988;DHT22;4529;51.360;12.474;2022-12-07T10:15:54;6.00;99.90
8988;DHT22;4529;51.360;12.474;2022-12-07T10:31:45;6.00;99.90
8988;DHT22;4529;51.360;12.474;2022-12-07T10:36:48;6.00;99.90
8988;DHT22;4529;51.360;12.474;2022-12-07T10:42:01;6.10;99.90
8988;DHT22;4529;51.360;12.474;2022-12-07T10:52:39;6.20;99.90
8988;DHT22;4529;51.360;12.474;2022-12-07T10:57:45;6.20;99.90
8988;DHT22;4529;51.360;12.474;2022-12-07T11:02:56;6.30;99.90
8988;DHT22;4529;51.360;12.474;2022-12-07T11:08:11;6.20;99.90
8988;DHT22;4529;51.360;12.474;2022-12-07T11:13:22;6.40;99.90
8988;DHT22;4529;51.360;12.474;2022-12-07T11:50:54;6.20;99.90
8988;DHT22;4529;51.360;12.474;2022-12-07T11:55:40;6.10;99.90
8988;DHT22;4529;51.360;12.474;2022-12-07T12:00:40;6.00;99.90
8988;DHT22;4529;51.360;12.474;2022-12-07T12:05:43;6.00;99.90
8988;DHT22;4529;51.360;12.474;2022-12-07T12:11:29;6.00;99.90
8988;DHT22;4529;51.360;12.474;2022-12-07T12:22:19;6.00;99.90
8988;DHT22;4529;51.360;12.474;2022-12-07T12:27:26;6.00;99.90
8988;DHT22;4529;51.360;12.474;2022-12-07T12:32:41;6.00;99.90
8988;DHT22;4529;51.360;12.474;2022-12-07T12:37:44;6.00;99.90
8988;DHT22;4529;51.360;12.474;2022-12-07T12:42:47;6.00;99.90
8988;DHT22;4529;51.360;12.474;2022-12-07T12:53:01;6.10;99.90
8988;DHT22;4529;51.360;12.474;2022-12-07T13:03:27;6.10;99.90
8988;DHT22;4529;51.360;12.474;2022-12-07T13:08:30;6.10;99.90
8988;DHT22;4529;51.360;12.474;2022-12-07T13:13:34;6.10;99.90
8988;DHT22;4529;51.360;12.474;2022-12-07T13:18:37;6.20;99.90
8988;DHT22;4529;51.360;12.474;2022-12-07T13:34:34;6.10;99.90
8988;DHT22;4529;51.360;12.474;2022-12-07T13:39:44;6.10;99.90
8988;DHT22;4529;51.360;12.474;2022-12-07T13:44:40;6.20;99.90
8988;DHT22;4529;51.360;12.474;2022-12-07T13:49:48;6.40;99.90
8988;DHT22;4529;51.360;12.474;2022-12-07T13:54:57;6.30;99.90
8988;DHT22;4529;51.360;12.474;2022-12-07T14:00:00;6.30;99.90
8988;DHT22;4529;51.360;12.474;2022-12-07T14:05:13;6.40;99.90
8988;DHT22;4529;51.360;12.474;2022-12-07T14:10:31;6.40;99.90
8988;DHT22;4529;51.360;12.474;2022-12-07T14:15:34;6.50;99.90
8988;DHT22;4529;51.360;12.474;2022-12-07T14:20:38;6.50;99.90
8988;DHT22;4529;51.360;12.474;2022-12-07T14:25:51;6.40;99.90
8988;DHT22;4529;51.360;12.474;2022-12-07T14:30:53;6.50;99.90
8988;DHT22;4529;51.360;12.474;2022-12-07T14:35:56;6.40;99.90
8988;DHT22;4529;51.360;12.474;2022-12-07T14:41:00;6.40;99.90
8988;DHT22;4529;51.360;12.474;2022-12-07T14:46:03;6.30;99.90
8988;DHT22;4529;51.360;12.474;2022-12-07T14:51:07;6.30;99.90
8988;DHT22;4529;51.360;12.474;2022-12-07T14:56:10;6.20;99.90
8988;DHT22;4529;51.360;12.474;2022-12-07T15:01:14;6.30;99.90
8988;DHT22;4529;51.360;12.474;2022-12-07T15:06:18;6.20;99.90
8988;DHT22;4529;51.360;12.474;2022-12-07T15:11:22;6.20;99.90
8988;DHT22;4529;51.360;12.474;2022-12-07T15:16:26;6.10;99.90
8988;DHT22;4529;51.360;12.474;2022-12-07T15:21:29;6.10;99.90
8988;DHT22;4529;51.360;12.474;2022-12-07T15:26:33;6.20;99.90
8988;DHT22;4529;51.360;12.474;2022-12-07T15:31:36;6.20;99.90
8988;DHT22;4529;51.360;12.474;2022-12-07T15:36:40;6.10;99.90
8988;DHT22;4529;51.360;12.474;2022-12-07T15:41:44;6.10;99.90
8988;DHT22;4529;51.360;12.474;2022-12-07T15:46:48;6.10;99.90
8988;DHT22;4529;51.360;12.474;2022-12-07T15:51:51;6.10;99.90
8988;DHT22;4529;51.360;12.474;2022-12-07T15:56:55;6.10;99.90
8988;DHT22;4529;51.360;12.474;2022-12-07T16:01:59;6.10;99.90
8988;DHT22;4529;51.360;12.474;2022-12-07T16:07:03;6.10;99.90
8988;DHT22;4529;51.360;12.474;2022-12-07T16:12:07;6.10;99.90
8988;DHT22;4529;51.360;12.474;2022-12-07T16:17:10;6.10;99.90
8988;DHT22;4529;51.360;12.474;2022-12-07T16:22:14;6.10;99.90
8988;DHT22;4529;51.360;12.474;2022-12-07T16:27:18;6.00;99.90
8988;DHT22;4529;51.360;12.474;2022-12-07T16:32:22;5.90;99.90
8988;DHT22;4529;51.360;12.474;2022-12-07T16:37:26;5.80;99.90
8988;DHT22;4529;51.360;12.474;2022-12-07T16:42:33;5.80;99.90
8988;DHT22;4529;51.360;12.474;2022-12-07T16:47:38;5.80;99.90
8988;DHT22;4529;51.360;12.474;2022-12-07T16:52:42;5.70;99.90
8988;DHT22;4529;51.360;12.474;2022-12-07T16:57:45;5.70;99.90
8988;DHT22;4529;51.360;12.474;2022-12-07T17:02:49;5.60;99.90
8988;DHT22;4529;51.360;12.474;2022-12-07T17:07:53;5.60;99.90
8988;DHT22;4529;51.360;12.474;2022-12-07T17:12:57;5.50;99.90
8988;DHT22;4529;51.360;12.474;2022-12-07T17:18:00;5.60;99.90
8988;DHT22;4529;51.360;12.474;2022-12-07T17:23:04;5.60;99.90
8988;DHT22;4529;51.360;12.474;2022-12-07T17:28:08;5.60;99.90
8988;DHT22;4529;51.360;12.474;2022-12-07T17:33:11;5.60;99.90
8988;DHT22;4529;51.360;12.474;2022-12-07T17:38:15;5.60;99.90
8988;DHT22;4529;51.360;12.474;2022-12-07T17:43:19;5.60;99.90
8988;DHT22;4529;51.360;12.474;2022-12-07T17:48:23;5.60;99.90
8988;DHT22;4529;51.360;12.474;2022-12-07T17:53:27;5.60;99.90
8988;DHT22;4529;51.360;12.474;2022-12-07T17:58:30;5.60;99.90
8988;DHT22;4529;51.360;12.474;2022-12-07T18:03:33;5.70;99.90
8988;DHT22;4529;51.360;12.474;2022-12-07T18:08:38;5.70;99.90
8988;DHT22;4529;51.360;12.474;2022-12-07T18:13:42;5.70;99.90
8988;DHT22;4529;51.360;12.474;2022-12-07T18:18:46;5.70;99.90
8988;DHT22;4529;51.360;12.474;2022-12-07T18:23:50;5.80;99.90
8988;DHT22;4529;51.360;12.474;2022-12-07T18:28:52;5.80;99.90
8988;DHT22;4529;51.360;12.474;2022-12-07T18:33:59;5.80;99.90
8988;DHT22;4529;51.360;12.474;2022-12-07T18:39:00;5.80;99.90
8988;DHT22;4529;51.360;12.474;2022-12-07T18:44:04;5.80;99.90
8988;DHT22;4529;51.360;12.474;2022-12-07T18:49:07;5.80;99.90
8988;DHT22;4529;51.360;12.474;2022-12-07T18:54:11;5.80;99.90
8988;DHT22;4529;51.360;12.474;2022-12-07T18:59:15;5.80;99.90
8988;DHT22;4529;51.360;12.474;2022-12-07T19:04:18;5.70;99.90
8988;DHT22;4529;51.360;12.474;2022-12-07T19:09:22;5.80;99.90
8988;DHT22;4529;51.360;12.474;2022-12-07T19:14:26;5.80;99.90
8988;DHT22;4529;51.360;12.474;2022-12-07T19:19:31;5.70;99.90
8988;DHT22;4529;51.360;12.474;2022-12-07T19:24:33;5.70;99.90
8988;DHT22;4529;51.360;12.474;2022-12-07T19:29:37;5.70;99.90
8988;DHT22;4529;51.360;12.474;2022-12-07T19:34:42;5.70;99.90
8988;DHT22;4529;51.360;12.474;2022-12-07T19:39:44;5.70;99.90
8988;DHT22;4529;51.360;12.474;2022-12-07T19:44:48;5.70;99.90
8988;DHT22;4529;51.360;12.474;2022-12-07T19:49:52;5.70;99.90
8988;DHT22;4529;51.360;12.474;2022-12-07T19:54:56;5.70;99.90
8988;DHT22;4529;51.360;12.474;2022-12-07T20:00:00;5.70;99.90
8988;DHT22;4529;51.360;12.474;2022-12-07T20:05:05;5.70;99.90
8988;DHT22;4529;51.360;12.474;2022-12-07T20:10:09;5.70;99.90
8988;DHT22;4529;51.360;12.474;2022-12-07T20:15:13;5.70;99.90
8988;DHT22;4529;51.360;12.474;2022-12-07T20:20:18;5.70;99.90
8988;DHT22;4529;51.360;12.474;2022-12-07T20:25:22;5.70;99.90
8988;DHT22;4529;51.360;12.474;2022-12-07T20:30:26;5.70;99.90
8988;DHT22;4529;51.360;12.474;2022-12-07T20:35:29;5.70;99.90
8988;DHT22;4529;51.360;12.474;2022-12-07T20:40:33;5.70;99.90
8988;DHT22;4529;51.360;12.474;2022-12-07T20:45:42;5.70;99.90
8988;DHT22;4529;51.360;12.474;2022-12-07T20:50:41;5.70;99.90
8988;DHT22;4529;51.360;12.474;2022-12-07T20:55:44;5.70;99.90
8988;DHT22;4529;51.360;12.474;2022-12-07T21:00:47;5.70;99.90
8988;DHT22;4529;51.360;12.474;2022-12-07T21:05:51;5.70;99.90
8988;DHT22;4529;51.360;12.474;2022-12-07T21:10:55;5.70;99.90
8988;DHT22;4529;51.360;12.474;2022-12-07T21:15:58;5.70;99.90
8988;DHT22;4529;51.360;12.474;2022-12-07T21:21:02;5.70;99.90
8988;DHT22;4529;51.360;12.474;2022-12-07T21:26:11;5.60;99.90
8988;DHT22;4529;51.360;12.474;2022-12-07T21:31:11;5.60;99.90
8988;DHT22;4529;51.360;12.474;2022-12-07T21:36:16;5.60;99.90
8988;DHT22;4529;51.360;12.474;2022-12-07T21:41:21;5.70;99.90
8988;DHT22;4529;51.360;12.474;2022-12-07T21:46:24;5.60;99.90
8988;DHT22;4529;51.360;12.474;2022-12-07T21:51:28;5.60;99.90
8988;DHT22;4529;51.360;12.474;2022-12-07T21:56:39;5.60;99.90
8988;DHT22;4529;51.360;12.474;2022-12-07T22:01:43;5.60;99.90
8988;DHT22;4529;51.360;12.474;2022-12-07T22:06:47;5.60;99.90
8988;DHT22;4529;51.360;12.474;2022-12-07T22:11:51;5.60;99.90
8988;DHT22;4529;51.360;12.474;2022-12-07T22:16:54;5.60;99.90
8988;DHT22;4529;51.360;12.474;2022-12-07T22:21:58;5.60;99.90
8988;DHT22;4529;51.360;12.474;2022-12-07T22:27:01;5.70;99.90
8988;DHT22;4529;51.360;12.474;2022-12-07T22:32:06;5.60;99.90
8988;DHT22;4529;51.360;12.474;2022-12-07T22:37:10;5.70;99.90
8988;DHT22;4529;51.360;12.474;2022-12-07T22:42:13;5.70;99.90
8988;DHT22;4529;51.360;12.474;2022-12-07T22:47:17;5.70;99.90
8988;DHT22;4529;51.360;12.474;2022-12-07T22:52:20;5.70;99.90
8988;DHT22;4529;51.360;12.474;2022-12-07T22:57:24;5.70;99.90
8988;DHT22;4529;51.360;12.474;2022-12-07T23:02:28;5.70;99.90
8988;DHT22;4529;51.360;12.474;2022-12-07T23:07:31;5.70;99.90
8988;DHT22;4529;51.360;12.474;2022-12-07T23:12:34;5.70;99.90
8988;DHT22;4529;51.360;12.474;2022-12-07T23:17:39;5.70;99.90
8988;DHT22;4529;51.360;12.474;2022-12-07T23:22:43;5.70;99.90
8988;DHT22;4529;51.360;12.474;2022-12-07T23:27:46;5.70;99.90
8988;DHT22;4529;51.360;12.474;2022-12-07T23:32:50;5.70;99.90
8988;DHT22;4529;51.360;12.474;2022-12-07T23:37:53;5.70;99.90
8988;DHT22;4529;51.360;12.474;2022-12-07T23:42:57;5.70;99.90
8988;DHT22;4529;51.360;12.474;2022-12-07T23:48:01;5.70;99.90
8988;DHT22;4529;51.360;12.474;2022-12-07T23:53:05;5.70;99.90
8988;DHT22;4529;51.360;12.474;2022-12-07T23:58:08;5.70;99.90
